createdAt,value
2023-03-29T00:01:35.825Z,8.20
2023-03-29T00:04:10.746Z,9.20
2023-03-29T00:06:47.949Z,8.07
2023-03-29T00:09:21.575Z,8.33
2023-03-29T00:11:55.123Z,8.93
2023-03-29T00:14:31.132Z,9.10
2023-03-29T00:17:04.637Z,9.03
2023-03-29T00:19:38.303Z,8.63
2023-03-29T00:22:11.270Z,8.27
2023-03-29T00:24:48.031Z,8.57
2023-03-29T00:27:21.694Z,9.87
2023-03-29T00:29:55.138Z,9.13
2023-03-29T00:32:28.652Z,9.20
2023-03-29T00:35:02.447Z,9.10
2023-03-29T00:37:36.437Z,8.53
2023-03-29T00:40:13.640Z,9.90
2023-03-29T00:42:49.020Z,10.10
2023-03-29T00:45:25.436Z,10.40
2023-03-29T00:48:02.915Z,10.50
2023-03-29T00:50:40.020Z,10.03
2023-03-29T00:53:19.544Z,10.77
2023-03-29T00:55:59.058Z,10.50
2023-03-29T00:58:39.644Z,11.13
2023-03-29T01:01:19.694Z,10.50
2023-03-29T01:03:59.583Z,11.10
2023-03-29T01:06:36.618Z,11.27
2023-03-29T01:09:14.077Z,10.90
2023-03-29T01:11:50.966Z,12.53
2023-03-29T01:14:30.080Z,12.47
2023-03-29T01:17:04.676Z,12.20
2023-03-29T01:19:46.119Z,12.13
2023-03-29T01:22:31.606Z,12.03
2023-03-29T01:25:17.687Z,11.53
2023-03-29T01:27:56.622Z,10.87
2023-03-29T01:30:35.125Z,12.27
2023-03-29T01:33:14.654Z,11.60
2023-03-29T01:35:52.542Z,11.80
2023-03-29T01:38:32.232Z,11.93
2023-03-29T01:41:05.998Z,12.13
2023-03-29T01:43:46.086Z,12.53
2023-03-29T01:46:28.502Z,11.53
2023-03-29T01:49:05.466Z,12.00
2023-03-29T01:51:43.248Z,12.30
2023-03-29T01:54:21.980Z,11.63
2023-03-29T01:56:58.836Z,12.50
2023-03-29T01:59:35.803Z,10.90
2023-03-29T02:02:15.801Z,11.23
2023-03-29T02:04:53.128Z,10.70
2023-03-29T02:07:31.337Z,11.73
2023-03-29T02:10:05.728Z,11.23
2023-03-29T02:12:39.589Z,10.83
2023-03-29T02:15:19.272Z,10.90
2023-03-29T02:17:52.412Z,11.17
2023-03-29T02:20:28.997Z,10.10
2023-03-29T02:23:10.393Z,9.90
2023-03-29T02:25:45.762Z,10.40
2023-03-29T02:28:19.956Z,9.97
2023-03-29T02:30:58.278Z,10.20
2023-03-29T02:33:39.563Z,10.83
2023-03-29T02:36:19.931Z,11.70
2023-03-29T02:38:54.997Z,10.57
2023-03-29T02:41:30.006Z,11.43
2023-03-29T02:44:05.547Z,12.43
2023-03-29T02:46:42.750Z,12.77
2023-03-29T02:49:16.829Z,13.43
2023-03-29T02:51:52.819Z,12.37
2023-03-29T02:54:31.682Z,13.17
2023-03-29T02:57:08.120Z,14.90
2023-03-29T02:59:44.285Z,13.97
2023-03-29T03:02:18.137Z,13.03
2023-03-29T03:04:51.938Z,11.50
2023-03-29T03:07:26.180Z,10.87
2023-03-29T03:10:00.129Z,11.30
2023-03-29T03:12:33.701Z,10.03
2023-03-29T03:15:08.199Z,9.60
2023-03-29T03:17:44.996Z,9.80
2023-03-29T03:20:22.210Z,10.17
2023-03-29T03:22:57.700Z,10.50
2023-03-29T03:25:31.789Z,10.10
2023-03-29T03:28:06.142Z,11.23
2023-03-29T03:30:39.743Z,10.73
2023-03-29T03:33:33.632Z,10.97
2023-03-29T03:36:31.786Z,11.53
2023-03-29T03:39:07.449Z,11.00
2023-03-29T03:41:40.927Z,10.40
2023-03-29T03:44:14.224Z,11.47
2023-03-29T03:46:48.281Z,10.33
2023-03-29T03:49:22.152Z,12.80
2023-03-29T03:51:55.697Z,13.33
2023-03-29T03:54:29.234Z,14.00
2023-03-29T03:57:38.152Z,12.40
2023-03-29T04:00:21.538Z,12.17
2023-03-29T04:03:07.215Z,11.30
2023-03-29T04:05:44.736Z,12.20
2023-03-29T04:08:19.505Z,11.17
2023-03-29T04:11:12.750Z,10.10
2023-03-29T04:13:48.403Z,9.47
2023-03-29T04:16:34.333Z,8.87
2023-03-29T04:19:19.959Z,9.57
2023-03-29T04:21:53.392Z,10.10
2023-03-29T04:24:27.985Z,10.10
2023-03-29T04:29:52.168Z,8.70
2023-03-29T04:32:32.084Z,8.83
2023-03-29T04:35:12.065Z,7.97
2023-03-29T04:37:45.688Z,7.90
2023-03-29T04:40:21.023Z,7.23
2023-03-29T04:43:18.316Z,8.10
2023-03-29T04:46:01.035Z,7.17
2023-03-29T04:48:57.971Z,6.67
2023-03-29T04:51:39.413Z,6.63
2023-03-29T04:54:13.268Z,6.33
2023-03-29T04:57:03.848Z,6.37
2023-03-29T04:59:52.774Z,5.73
2023-03-29T05:02:49.838Z,5.37
2023-03-29T05:05:23.729Z,6.10
2023-03-29T05:07:57.373Z,6.00
2023-03-29T05:10:35.229Z,5.70
2023-03-29T05:13:09.233Z,5.43
2023-03-29T05:15:43.185Z,5.20
2023-03-29T05:18:17.048Z,5.33
2023-03-29T05:20:53.181Z,5.73
2023-03-29T05:23:26.734Z,5.47
2023-03-29T05:26:19.312Z,5.45
2023-03-29T05:28:56.430Z,5.73
2023-03-29T05:31:30.254Z,6.60
2023-03-29T05:34:03.347Z,5.37
2023-03-29T05:36:37.428Z,6.87
2023-03-29T05:39:11.444Z,6.63
2023-03-29T05:41:45.499Z,5.10
2023-03-29T05:44:32.183Z,4.93
2023-03-29T05:47:13.394Z,5.60
2023-03-29T05:49:46.720Z,4.90
2023-03-29T05:52:24.089Z,4.47
2023-03-29T05:54:57.625Z,4.83
2023-03-29T05:57:31.003Z,4.67
2023-03-29T06:00:17.299Z,4.53
2023-03-29T06:02:51.407Z,5.03
2023-03-29T06:05:26.013Z,4.83
2023-03-29T06:08:10.034Z,4.80
2023-03-29T06:11:16.795Z,5.07
2023-03-29T06:14:13.908Z,5.13
2023-03-29T06:16:53.720Z,5.10
2023-03-29T06:19:28.548Z,4.90
2023-03-29T06:22:01.956Z,5.67
2023-03-29T06:24:35.283Z,5.73
2023-03-29T06:27:13.993Z,4.90
2023-03-29T06:29:48.414Z,4.80
2023-03-29T06:32:22.365Z,5.03
2023-03-29T06:35:07.277Z,5.10
2023-03-29T06:37:51.320Z,4.90
2023-03-29T06:40:48.409Z,4.93
2023-03-29T06:43:22.275Z,4.90
2023-03-29T06:46:01.187Z,4.33
2023-03-29T06:48:45.368Z,4.73
2023-03-29T06:51:19.887Z,5.07
2023-03-29T06:53:55.922Z,4.50
2023-03-29T06:56:30.164Z,4.63
2023-03-29T06:59:23.586Z,3.70
2023-03-29T07:02:17.648Z,4.27
2023-03-29T07:04:54.597Z,3.90
2023-03-29T07:07:53.957Z,3.97
2023-03-29T07:10:42.223Z,3.83
2023-03-29T07:13:42.846Z,4.23
2023-03-29T07:16:19.476Z,4.05
2023-03-29T07:18:55.584Z,4.00
2023-03-29T07:21:48.307Z,3.70
2023-03-29T07:24:22.607Z,3.27
2023-03-29T07:27:04.070Z,3.40
2023-03-29T07:29:39.958Z,3.50
2023-03-29T07:32:13.721Z,3.67
2023-03-29T07:34:50.106Z,3.80
2023-03-29T07:37:40.085Z,3.10
2023-03-29T07:40:16.395Z,3.40
2023-03-29T07:43:19.361Z,3.33
2023-03-29T07:45:53.221Z,3.30
2023-03-29T07:48:27.015Z,3.97
2023-03-29T07:51:07.615Z,3.33
2023-03-29T07:53:49.518Z,3.65
2023-03-29T07:56:41.812Z,3.33
2023-03-29T07:59:28.949Z,3.40
2023-03-29T08:02:14.603Z,3.27
2023-03-29T08:04:51.692Z,3.10
2023-03-29T08:07:46.637Z,3.40
2023-03-29T08:10:27.911Z,2.90
2023-03-29T08:13:21.601Z,3.20
2023-03-29T08:16:15.971Z,3.13
2023-03-29T08:18:55.414Z,3.07
2023-03-29T08:21:29.927Z,3.63
2023-03-29T08:24:03.438Z,3.47
2023-03-29T08:26:47.068Z,3.30
2023-03-29T08:29:22.935Z,3.47
2023-03-29T08:31:56.563Z,3.00
2023-03-29T08:34:32.186Z,3.10
2023-03-29T08:37:28.572Z,3.50
2023-03-29T08:40:04.206Z,2.93
2023-03-29T08:43:02.119Z,2.80
2023-03-29T08:45:49.720Z,2.80
2023-03-29T08:48:31.838Z,3.47
2023-03-29T08:53:48.193Z,2.73
2023-03-29T08:56:34.139Z,3.10
2023-03-29T08:59:56.856Z,2.67
2023-03-29T09:02:32.995Z,2.60
2023-03-29T09:05:28.164Z,2.13
2023-03-29T09:08:17.772Z,2.67
2023-03-29T09:11:12.727Z,2.30
2023-03-29T09:13:57.384Z,2.23
2023-03-29T09:16:38.411Z,2.23
2023-03-29T09:19:21.790Z,2.30
2023-03-29T09:22:04.602Z,2.57
2023-03-29T09:24:48.858Z,3.00
2023-03-29T09:27:28.102Z,3.00
2023-03-29T09:30:27.160Z,3.23
2023-03-29T09:33:05.229Z,3.20
2023-03-29T09:36:05.290Z,2.70
2023-03-29T09:38:44.643Z,2.40
2023-03-29T09:41:26.791Z,2.87
2023-03-29T09:44:12.661Z,3.17
2023-03-29T09:46:53.900Z,2.70
2023-03-29T09:49:32.968Z,2.90
2023-03-29T09:52:13.173Z,2.80
2023-03-29T09:57:44.160Z,3.00
2023-03-29T10:00:20.903Z,3.60
2023-03-29T10:03:00.430Z,3.13
2023-03-29T10:05:54.692Z,2.90
2023-03-29T10:08:30.490Z,2.50
2023-03-29T10:11:11.042Z,3.20
2023-03-29T10:13:50.843Z,2.90
2023-03-29T10:16:26.577Z,3.13
2023-03-29T10:19:00.024Z,3.00
2023-03-29T10:21:34.850Z,2.83
2023-03-29T10:24:10.518Z,2.90
2023-03-29T10:26:43.938Z,2.90
2023-03-29T10:29:17.805Z,2.93
2023-03-29T10:31:52.360Z,2.77
2023-03-29T10:34:28.600Z,2.60
2023-03-29T10:37:03.666Z,3.20
2023-03-29T10:39:38.390Z,3.03
2023-03-29T10:42:17.325Z,2.80
2023-03-29T10:44:58.562Z,3.10
2023-03-29T10:47:35.612Z,3.10
2023-03-29T10:50:16.809Z,3.00
2023-03-29T10:52:51.172Z,2.97
2023-03-29T10:55:30.534Z,3.33
2023-03-29T10:58:15.834Z,3.03
2023-03-29T11:00:57.422Z,3.50
2023-03-29T11:03:52.673Z,2.90
2023-03-29T11:06:33.461Z,2.43
2023-03-29T11:09:16.148Z,2.67
2023-03-29T11:12:15.136Z,2.63
2023-03-29T11:15:05.097Z,2.53
2023-03-29T11:17:53.870Z,3.10
2023-03-29T11:20:35.014Z,2.70
2023-03-29T11:23:22.573Z,2.40
2023-03-29T11:26:09.912Z,2.50
2023-03-29T11:28:49.314Z,2.00
2023-03-29T11:31:34.857Z,2.70
2023-03-29T11:34:23.445Z,2.50
2023-03-29T11:37:02.804Z,2.60
2023-03-29T11:39:45.350Z,2.30
2023-03-29T11:42:23.144Z,2.10
2023-03-29T11:44:58.448Z,2.80
2023-03-29T11:47:36.806Z,2.37
2023-03-29T11:50:19.857Z,2.30
2023-03-29T11:52:57.988Z,2.13
2023-03-29T11:55:33.998Z,2.50
2023-03-29T11:58:14.673Z,2.67
2023-03-29T12:00:55.742Z,2.50
2023-03-29T12:03:38.906Z,2.30
2023-03-29T12:06:21.982Z,2.50
2023-03-29T12:09:00.695Z,2.60
2023-03-29T12:11:40.469Z,2.20
2023-03-29T12:14:19.299Z,2.60
2023-03-29T12:16:56.311Z,2.47
2023-03-29T12:19:39.678Z,2.50
2023-03-29T12:22:15.843Z,2.35
2023-03-29T12:24:55.629Z,2.40
2023-03-29T12:27:34.192Z,2.63
2023-03-29T12:30:41.021Z,2.40
2023-03-29T12:33:29.675Z,2.33
2023-03-29T12:36:45.719Z,2.00
2023-03-29T12:39:41.034Z,1.83
2023-03-29T12:42:33.334Z,2.30
2023-03-29T12:45:21.364Z,2.17
2023-03-29T12:47:55.131Z,2.70
2023-03-29T12:50:33.485Z,2.50
2023-03-29T12:53:15.520Z,2.50
2023-03-29T12:55:56.743Z,1.93
2023-03-29T12:58:44.013Z,2.50
2023-03-29T13:01:31.579Z,2.30
2023-03-29T13:04:23.555Z,2.15
2023-03-29T13:07:04.716Z,2.08
2023-03-29T13:09:51.330Z,2.40
2023-03-29T13:12:32.953Z,2.10
2023-03-29T13:15:23.836Z,2.33
2023-03-29T13:18:12.370Z,2.27
2023-03-29T13:20:56.436Z,2.10
2023-03-29T13:23:42.526Z,2.47
2023-03-29T13:26:52.380Z,2.30
2023-03-29T13:29:49.739Z,2.50
2023-03-29T13:32:47.552Z,2.80
2023-03-29T13:35:32.384Z,2.40
2023-03-29T13:38:20.090Z,2.50
2023-03-29T13:41:08.432Z,2.37
2023-03-29T13:43:53.868Z,2.40
2023-03-29T13:46:37.815Z,2.30
2023-03-29T13:49:19.924Z,2.37
2023-03-29T13:52:16.572Z,2.42
2023-03-29T13:54:56.643Z,2.60
2023-03-29T13:57:39.264Z,2.20
2023-03-29T14:00:21.999Z,2.33
2023-03-29T14:05:33.586Z,2.30
2023-03-29T14:08:14.987Z,2.53
2023-03-29T14:10:49.126Z,2.30
2023-03-29T14:13:27.202Z,2.70
2023-03-29T14:16:04.575Z,2.63
2023-03-29T14:18:41.576Z,2.43
2023-03-29T14:21:15.985Z,2.50
2023-03-29T14:23:55.843Z,2.80
2023-03-29T14:26:34.717Z,2.40
2023-03-29T14:29:12.133Z,2.70
2023-03-29T14:31:46.267Z,2.70
2023-03-29T14:34:20.770Z,2.87
2023-03-29T14:36:54.865Z,3.10
2023-03-29T14:39:28.454Z,2.10
2023-03-29T14:42:02.536Z,2.50
2023-03-29T14:44:37.186Z,2.43
2023-03-29T14:47:16.567Z,2.83
2023-03-29T14:49:50.601Z,2.90
2023-03-29T14:52:24.569Z,2.73
2023-03-29T14:55:00.428Z,2.63
2023-03-29T14:57:39.809Z,2.53
2023-03-29T15:00:31.874Z,2.50
2023-03-29T15:03:14.406Z,2.50
2023-03-29T15:05:54.007Z,2.73
2023-03-29T15:08:34.208Z,2.67
2023-03-29T15:11:16.070Z,2.87
2023-03-29T15:13:51.393Z,2.87
2023-03-29T15:16:25.443Z,2.87
2023-03-29T15:18:59.612Z,3.07
2023-03-29T15:21:35.876Z,3.43
2023-03-29T15:24:22.655Z,3.27
2023-03-29T15:27:05.701Z,3.10
2023-03-29T15:29:42.121Z,3.63
2023-03-29T15:32:24.015Z,3.53
2023-03-29T15:35:05.086Z,3.17
2023-03-29T15:37:38.851Z,3.47
2023-03-29T15:40:17.295Z,3.33
2023-03-29T15:42:50.896Z,3.20
2023-03-29T15:45:26.005Z,3.40
2023-03-29T15:48:02.122Z,3.00
2023-03-29T15:50:36.105Z,3.37
2023-03-29T15:53:15.224Z,3.37
2023-03-29T15:55:52.331Z,3.30
2023-03-29T15:58:29.531Z,3.47
2023-03-29T16:01:13.432Z,3.47
2023-03-29T16:03:48.059Z,3.30
2023-03-29T16:06:24.108Z,3.27
2023-03-29T16:08:57.591Z,4.60
2023-03-29T16:11:31.894Z,4.40
2023-03-29T16:14:08.129Z,4.30
2023-03-29T16:16:41.446Z,4.27
2023-03-29T16:19:15.138Z,4.10
2023-03-29T16:21:48.740Z,4.10
2023-03-29T16:24:24.229Z,4.23
2023-03-29T16:26:58.190Z,4.33
2023-03-29T16:29:32.112Z,4.33
2023-03-29T16:32:06.918Z,4.85
2023-03-29T16:37:14.843Z,4.00
2023-03-29T16:39:48.297Z,4.37
2023-03-29T16:42:21.372Z,4.80
2023-03-29T16:44:55.162Z,4.80
2023-03-29T16:47:28.668Z,5.50
2023-03-29T16:50:01.815Z,5.83
2023-03-29T16:52:35.280Z,5.57
2023-03-29T16:55:12.316Z,4.77
2023-03-29T16:57:46.238Z,5.27
2023-03-29T17:00:22.372Z,5.97
2023-03-29T17:02:56.585Z,6.10
2023-03-29T17:05:30.370Z,7.63
2023-03-29T17:08:03.971Z,7.27
2023-03-29T17:10:38.007Z,6.90
2023-03-29T17:13:12.894Z,6.53
2023-03-29T17:15:46.446Z,8.07
2023-03-29T17:18:20.355Z,8.00
2023-03-29T17:20:56.997Z,7.97
2023-03-29T17:23:30.824Z,7.20
2023-03-29T17:26:04.608Z,7.07
2023-03-29T17:28:38.306Z,7.20
2023-03-29T17:31:11.910Z,7.27
2023-03-29T17:33:45.091Z,7.60
2023-03-29T17:36:19.366Z,8.07
2023-03-29T17:38:54.973Z,9.47
2023-03-29T17:41:31.227Z,8.37
2023-03-29T17:44:05.010Z,6.90
2023-03-29T17:46:38.871Z,7.27
2023-03-29T17:49:14.179Z,6.23
2023-03-29T17:51:47.663Z,5.90
2023-03-29T17:54:21.257Z,6.03
2023-03-29T17:56:54.725Z,6.30
2023-03-29T17:59:28.289Z,6.93
2023-03-29T18:02:03.184Z,6.20
2023-03-29T18:04:36.619Z,6.53
2023-03-29T18:07:13.220Z,7.17
2023-03-29T18:09:53.293Z,7.47
2023-03-29T18:12:27.969Z,8.30
2023-03-29T18:15:03.268Z,9.80
2023-03-29T18:17:37.201Z,10.93
2023-03-29T18:20:12.065Z,11.07
2023-03-29T18:22:45.977Z,27.60
2023-03-29T18:25:21.304Z,19.50
2023-03-29T18:27:55.309Z,12.90
2023-03-29T18:30:29.018Z,10.83
2023-03-29T18:33:02.491Z,11.23
2023-03-29T18:35:36.954Z,11.47
2023-03-29T18:38:10.338Z,11.17
2023-03-29T18:40:43.713Z,11.70
2023-03-29T18:43:17.252Z,11.37
2023-03-29T18:45:51.358Z,11.03
2023-03-29T18:48:25.996Z,10.97
2023-03-29T18:51:02.794Z,11.00
2023-03-29T18:53:38.906Z,11.13
2023-03-29T18:56:12.634Z,11.63
2023-03-29T18:58:46.503Z,11.30
2023-03-29T19:01:19.705Z,11.77
2023-03-29T19:03:53.262Z,11.30
2023-03-29T19:06:26.631Z,10.77
2023-03-29T19:09:02.335Z,10.50
2023-03-29T19:11:37.029Z,10.00
2023-03-29T19:14:10.273Z,10.23
2023-03-29T19:16:43.467Z,10.50
2023-03-29T19:19:17.064Z,11.57
2023-03-29T19:21:51.832Z,11.60
2023-03-29T19:24:25.404Z,11.57
2023-03-29T19:26:58.746Z,12.20
2023-03-29T19:29:32.076Z,11.60
2023-03-29T19:32:07.128Z,13.07
2023-03-29T19:34:42.555Z,12.13
2023-03-29T19:37:17.759Z,12.77
2023-03-29T19:39:51.996Z,12.47
2023-03-29T19:42:25.594Z,13.17
2023-03-29T19:44:59.202Z,12.10
2023-03-29T19:47:33.436Z,12.70
2023-03-29T19:50:07.179Z,12.80
2023-03-29T19:52:41.270Z,13.67
2023-03-29T19:55:14.888Z,13.47
2023-03-29T19:57:48.291Z,13.97
2023-03-29T20:00:25.122Z,14.10
2023-03-29T20:02:58.741Z,14.33
2023-03-29T20:05:32.900Z,13.57
2023-03-29T20:08:06.728Z,15.43
2023-03-29T20:10:40.169Z,14.30
2023-03-29T20:13:14.558Z,16.03
2023-03-29T20:15:51.602Z,16.13
2023-03-29T20:18:24.780Z,17.80
2023-03-29T20:20:58.400Z,22.77
2023-03-29T20:23:32.191Z,27.90
2023-03-29T20:26:05.580Z,29.03
2023-03-29T20:28:38.973Z,29.77
2023-03-29T20:31:13.341Z,27.67
2023-03-29T20:33:46.791Z,27.70
2023-03-29T20:36:23.166Z,25.97
2023-03-29T20:38:58.917Z,25.77
2023-03-29T20:41:33.907Z,24.43
2023-03-29T20:44:07.164Z,25.97
2023-03-29T20:46:54.776Z,23.97
2023-03-29T20:49:28.458Z,22.53
2023-03-29T20:52:02.580Z,24.17
2023-03-29T20:54:36.077Z,24.53
2023-03-29T20:57:11.237Z,22.80
2023-03-29T20:59:45.615Z,23.77
2023-03-29T21:02:21.426Z,23.03
2023-03-29T21:05:00.313Z,21.77
2023-03-29T21:07:33.949Z,21.35
2023-03-29T21:10:08.808Z,22.27
2023-03-29T21:12:42.318Z,22.10
2023-03-29T21:15:18.147Z,22.90
2023-03-29T21:17:51.353Z,22.30
2023-03-29T21:20:24.779Z,22.60
2023-03-29T21:22:58.352Z,22.93
2023-03-29T21:25:31.553Z,20.83
2023-03-29T21:28:05.261Z,19.87
2023-03-29T21:30:38.626Z,22.77
2023-03-29T21:33:12.131Z,22.07
2023-03-29T21:35:45.972Z,21.30
2023-03-29T21:38:19.770Z,20.83
2023-03-29T21:40:52.935Z,21.83
2023-03-29T21:43:26.732Z,22.73
2023-03-29T21:45:59.977Z,23.00
2023-03-29T21:48:34.196Z,21.87
2023-03-29T21:51:09.187Z,21.73
2023-03-29T21:53:42.663Z,21.97
2023-03-29T21:56:16.503Z,21.50
2023-03-29T21:58:49.971Z,19.63
2023-03-29T22:01:23.528Z,18.67
2023-03-29T22:03:57.030Z,18.20
2023-03-29T22:06:31.044Z,17.63
2023-03-29T22:09:05.368Z,21.90
2023-03-29T22:11:39.771Z,23.40
2023-03-29T22:14:14.189Z,23.20
2023-03-29T22:16:47.573Z,22.45
2023-03-29T22:19:21.234Z,21.10
2023-03-29T22:22:00.311Z,21.07
2023-03-29T22:24:34.040Z,21.07
2023-03-29T22:27:07.642Z,22.27
2023-03-29T22:29:40.806Z,25.53
2023-03-29T22:32:14.463Z,24.43
2023-03-29T22:34:48.139Z,24.20
2023-03-29T22:37:22.744Z,26.00
2023-03-29T22:39:56.685Z,24.23
2023-03-29T22:42:29.710Z,24.63
2023-03-29T22:45:03.215Z,23.70
2023-03-29T22:47:37.095Z,25.03
2023-03-29T22:50:13.411Z,23.00
2023-03-29T22:52:46.576Z,24.13
2023-03-29T22:55:21.027Z,24.23
2023-03-29T22:57:54.627Z,23.77
2023-03-29T23:00:28.695Z,25.70
2023-03-29T23:03:02.525Z,24.90
2023-03-29T23:05:36.308Z,27.30
2023-03-29T23:08:09.701Z,25.53
2023-03-29T23:10:43.038Z,25.47
2023-03-29T23:13:20.736Z,26.37
2023-03-29T23:15:55.381Z,25.83
2023-03-29T23:18:30.740Z,24.80
2023-03-29T23:21:06.358Z,26.27
2023-03-29T23:23:40.720Z,25.27
2023-03-29T23:26:14.155Z,26.33
2023-03-29T23:28:47.845Z,25.57
2023-03-29T23:31:21.494Z,25.67
2023-03-29T23:33:54.930Z,25.83
2023-03-29T23:36:31.311Z,25.50
2023-03-29T23:39:08.191Z,25.27
2023-03-29T23:41:41.778Z,24.37
2023-03-29T23:44:15.267Z,24.03
2023-03-29T23:46:49.444Z,23.80
2023-03-29T23:49:24.241Z,26.67
2023-03-29T23:52:00.338Z,28.07
2023-03-29T23:54:33.788Z,23.50
2023-03-29T23:57:07.536Z,23.50
2023-03-29T23:59:41.285Z,23.63
